sensor_id;sensor_type;location;lat;lon;timestamp;P1;durP1;ratioP1;P2;durP2;ratioP2
17985;SDS011;9118;48.122;11.546;2023-06-22T00:01:17;8.02;;;4.70;;
17985;SDS011;9118;48.122;11.546;2023-06-22T00:03:44;9.05;;;5.55;;
17985;SDS011;9118;48.122;11.546;2023-06-22T00:06:12;7.65;;;4.55;;
17985;SDS011;9118;48.122;11.546;2023-06-22T00:08:39;6.35;;;4.32;;
17985;SDS011;9118;48.122;11.546;2023-06-22T00:11:06;9.35;;;6.57;;
17985;SDS011;9118;48.122;11.546;2023-06-22T00:13:35;6.27;;;4.27;;
17985;SDS011;9118;48.122;11.546;2023-06-22T00:16:03;8.48;;;4.68;;
17985;SDS011;9118;48.122;11.546;2023-06-22T00:18:30;7.23;;;5.10;;
17985;SDS011;9118;48.122;11.546;2023-06-22T00:20:57;10.15;;;4.72;;
17985;SDS011;9118;48.122;11.546;2023-06-22T00:23:25;9.73;;;4.90;;
17985;SDS011;9118;48.122;11.546;2023-06-22T00:25:52;10.38;;;4.88;;
17985;SDS011;9118;48.122;11.546;2023-06-22T00:28:19;7.55;;;4.70;;
17985;SDS011;9118;48.122;11.546;2023-06-22T00:30:48;7.75;;;4.75;;
17985;SDS011;9118;48.122;11.546;2023-06-22T00:33:15;7.50;;;4.60;;
17985;SDS011;9118;48.122;11.546;2023-06-22T00:35:42;10.05;;;5.00;;
17985;SDS011;9118;48.122;11.546;2023-06-22T00:38:09;7.95;;;4.60;;
17985;SDS011;9118;48.122;11.546;2023-06-22T00:40:37;6.95;;;4.47;;
17985;SDS011;9118;48.122;11.546;2023-06-22T00:43:05;9.77;;;4.65;;
17985;SDS011;9118;48.122;11.546;2023-06-22T00:45:32;8.15;;;4.78;;
17985;SDS011;9118;48.122;11.546;2023-06-22T00:48:00;7.75;;;4.65;;
17985;SDS011;9118;48.122;11.546;2023-06-22T00:50:31;9.10;;;4.50;;
17985;SDS011;9118;48.122;11.546;2023-06-22T00:53:00;8.32;;;4.75;;
17985;SDS011;9118;48.122;11.546;2023-06-22T00:55:33;10.48;;;4.47;;
17985;SDS011;9118;48.122;11.546;2023-06-22T00:58:02;7.15;;;4.78;;
17985;SDS011;9118;48.122;11.546;2023-06-22T01:00:30;9.57;;;4.93;;
17985;SDS011;9118;48.122;11.546;2023-06-22T01:02:59;9.67;;;5.30;;
17985;SDS011;9118;48.122;11.546;2023-06-22T01:05:33;8.25;;;4.90;;
17985;SDS011;9118;48.122;11.546;2023-06-22T01:08:11;8.00;;;4.78;;
17985;SDS011;9118;48.122;11.546;2023-06-22T01:10:46;6.00;;;3.78;;
17985;SDS011;9118;48.122;11.546;2023-06-22T01:13:19;8.02;;;4.90;;
17985;SDS011;9118;48.122;11.546;2023-06-22T01:15:53;10.00;;;5.38;;
17985;SDS011;9118;48.122;11.546;2023-06-22T01:18:28;8.00;;;4.53;;
17985;SDS011;9118;48.122;11.546;2023-06-22T01:20:58;6.90;;;4.93;;
17985;SDS011;9118;48.122;11.546;2023-06-22T01:23:29;5.60;;;4.50;;
17985;SDS011;9118;48.122;11.546;2023-06-22T01:26:05;7.53;;;4.88;;
17985;SDS011;9118;48.122;11.546;2023-06-22T01:28:44;8.45;;;4.95;;
17985;SDS011;9118;48.122;11.546;2023-06-22T01:31:14;15.20;;;10.60;;
17985;SDS011;9118;48.122;11.546;2023-06-22T01:33:44;8.73;;;4.70;;
17985;SDS011;9118;48.122;11.546;2023-06-22T01:36:16;9.98;;;4.70;;
17985;SDS011;9118;48.122;11.546;2023-06-22T01:38:44;7.80;;;4.63;;
17985;SDS011;9118;48.122;11.546;2023-06-22T01:41:12;7.43;;;4.78;;
17985;SDS011;9118;48.122;11.546;2023-06-22T01:43:39;11.30;;;5.27;;
17985;SDS011;9118;48.122;11.546;2023-06-22T01:46:08;12.70;;;5.22;;
17985;SDS011;9118;48.122;11.546;2023-06-22T01:48:36;12.00;;;5.00;;
17985;SDS011;9118;48.122;11.546;2023-06-22T01:51:04;7.85;;;4.50;;
17985;SDS011;9118;48.122;11.546;2023-06-22T01:53:31;9.10;;;5.40;;
17985;SDS011;9118;48.122;11.546;2023-06-22T01:55:58;7.50;;;4.85;;
17985;SDS011;9118;48.122;11.546;2023-06-22T01:58:25;8.00;;;5.72;;
17985;SDS011;9118;48.122;11.546;2023-06-22T02:00:56;10.20;;;5.57;;
17985;SDS011;9118;48.122;11.546;2023-06-22T02:03:31;8.50;;;4.90;;
17985;SDS011;9118;48.122;11.546;2023-06-22T02:06:03;7.45;;;4.97;;
17985;SDS011;9118;48.122;11.546;2023-06-22T02:08:36;7.93;;;5.20;;
17985;SDS011;9118;48.122;11.546;2023-06-22T02:11:06;9.50;;;5.80;;
17985;SDS011;9118;48.122;11.546;2023-06-22T02:13:35;9.60;;;5.70;;
17985;SDS011;9118;48.122;11.546;2023-06-22T02:16:03;7.53;;;5.38;;
17985;SDS011;9118;48.122;11.546;2023-06-22T02:18:31;7.95;;;5.30;;
17985;SDS011;9118;48.122;11.546;2023-06-22T02:21:00;12.15;;;6.28;;
17985;SDS011;9118;48.122;11.546;2023-06-22T02:23:27;9.63;;;5.57;;
17985;SDS011;9118;48.122;11.546;2023-06-22T02:25:54;10.45;;;5.65;;
17985;SDS011;9118;48.122;11.546;2023-06-22T02:28:21;10.93;;;5.70;;
17985;SDS011;9118;48.122;11.546;2023-06-22T02:30:48;10.02;;;5.93;;
17985;SDS011;9118;48.122;11.546;2023-06-22T02:33:15;9.10;;;5.97;;
17985;SDS011;9118;48.122;11.546;2023-06-22T02:35:43;9.77;;;5.95;;
17985;SDS011;9118;48.122;11.546;2023-06-22T02:38:14;8.98;;;6.25;;
17985;SDS011;9118;48.122;11.546;2023-06-22T02:40:42;9.38;;;6.43;;
17985;SDS011;9118;48.122;11.546;2023-06-22T02:43:09;13.25;;;6.13;;
17985;SDS011;9118;48.122;11.546;2023-06-22T02:45:36;9.18;;;5.78;;
17985;SDS011;9118;48.122;11.546;2023-06-22T02:48:03;11.10;;;6.77;;
17985;SDS011;9118;48.122;11.546;2023-06-22T02:50:31;26.73;;;8.07;;
17985;SDS011;9118;48.122;11.546;2023-06-22T02:52:59;9.30;;;5.90;;
17985;SDS011;9118;48.122;11.546;2023-06-22T02:55:26;9.95;;;5.93;;
17985;SDS011;9118;48.122;11.546;2023-06-22T02:57:53;12.18;;;6.30;;
17985;SDS011;9118;48.122;11.546;2023-06-22T03:00:22;8.70;;;5.60;;
17985;SDS011;9118;48.122;11.546;2023-06-22T03:02:55;10.63;;;5.93;;
17985;SDS011;9118;48.122;11.546;2023-06-22T03:05:23;8.18;;;5.68;;
17985;SDS011;9118;48.122;11.546;2023-06-22T03:07:51;9.65;;;5.45;;
17985;SDS011;9118;48.122;11.546;2023-06-22T03:10:19;8.32;;;5.05;;
17985;SDS011;9118;48.122;11.546;2023-06-22T03:12:46;10.07;;;5.47;;
17985;SDS011;9118;48.122;11.546;2023-06-22T03:15:13;8.38;;;5.40;;
17985;SDS011;9118;48.122;11.546;2023-06-22T03:17:40;10.57;;;5.80;;
17985;SDS011;9118;48.122;11.546;2023-06-22T03:20:08;11.38;;;5.97;;
17985;SDS011;9118;48.122;11.546;2023-06-22T03:22:36;12.55;;;5.93;;
17985;SDS011;9118;48.122;11.546;2023-06-22T03:25:04;12.27;;;5.82;;
17985;SDS011;9118;48.122;11.546;2023-06-22T03:27:36;7.25;;;5.80;;
17985;SDS011;9118;48.122;11.546;2023-06-22T03:30:04;9.48;;;5.60;;
17985;SDS011;9118;48.122;11.546;2023-06-22T03:32:32;10.20;;;6.05;;
17985;SDS011;9118;48.122;11.546;2023-06-22T03:34:59;10.97;;;6.20;;
17985;SDS011;9118;48.122;11.546;2023-06-22T03:37:27;12.13;;;7.00;;
17985;SDS011;9118;48.122;11.546;2023-06-22T03:39:54;12.23;;;7.20;;
17985;SDS011;9118;48.122;11.546;2023-06-22T03:42:21;11.75;;;6.43;;
17985;SDS011;9118;48.122;11.546;2023-06-22T03:44:49;10.88;;;6.72;;
17985;SDS011;9118;48.122;11.546;2023-06-22T03:47:16;9.18;;;6.65;;
17985;SDS011;9118;48.122;11.546;2023-06-22T03:49:43;12.85;;;6.78;;
17985;SDS011;9118;48.122;11.546;2023-06-22T03:52:10;13.13;;;6.68;;
17985;SDS011;9118;48.122;11.546;2023-06-22T03:54:37;9.25;;;6.40;;
17985;SDS011;9118;48.122;11.546;2023-06-22T03:57:04;8.97;;;6.50;;
17985;SDS011;9118;48.122;11.546;2023-06-22T03:59:31;12.70;;;7.03;;
17985;SDS011;9118;48.122;11.546;2023-06-22T04:02:00;13.02;;;7.00;;
17985;SDS011;9118;48.122;11.546;2023-06-22T04:04:27;17.08;;;6.70;;
17985;SDS011;9118;48.122;11.546;2023-06-22T04:06:54;10.15;;;6.78;;
17985;SDS011;9118;48.122;11.546;2023-06-22T04:09:21;13.55;;;6.80;;
17985;SDS011;9118;48.122;11.546;2023-06-22T04:11:48;10.40;;;6.30;;
17985;SDS011;9118;48.122;11.546;2023-06-22T04:14:15;10.05;;;6.95;;
17985;SDS011;9118;48.122;11.546;2023-06-22T04:16:42;11.35;;;6.22;;
17985;SDS011;9118;48.122;11.546;2023-06-22T04:19:11;8.15;;;6.28;;
17985;SDS011;9118;48.122;11.546;2023-06-22T04:21:41;11.32;;;6.30;;
17985;SDS011;9118;48.122;11.546;2023-06-22T04:24:09;17.88;;;8.18;;
17985;SDS011;9118;48.122;11.546;2023-06-22T04:26:36;11.45;;;7.00;;
17985;SDS011;9118;48.122;11.546;2023-06-22T04:29:03;10.65;;;7.05;;
17985;SDS011;9118;48.122;11.546;2023-06-22T04:31:31;12.50;;;7.17;;
17985;SDS011;9118;48.122;11.546;2023-06-22T04:34:02;11.57;;;6.90;;
17985;SDS011;9118;48.122;11.546;2023-06-22T04:36:34;12.85;;;6.88;;
17985;SDS011;9118;48.122;11.546;2023-06-22T04:39:04;12.30;;;6.90;;
17985;SDS011;9118;48.122;11.546;2023-06-22T04:41:34;15.45;;;6.80;;
17985;SDS011;9118;48.122;11.546;2023-06-22T04:44:08;14.07;;;7.23;;
17985;SDS011;9118;48.122;11.546;2023-06-22T04:46:36;14.17;;;7.10;;
17985;SDS011;9118;48.122;11.546;2023-06-22T04:49:07;13.82;;;8.13;;
17985;SDS011;9118;48.122;11.546;2023-06-22T04:51:45;12.25;;;7.28;;
17985;SDS011;9118;48.122;11.546;2023-06-22T04:54:13;13.38;;;7.43;;
17985;SDS011;9118;48.122;11.546;2023-06-22T04:56:39;11.82;;;7.68;;
17985;SDS011;9118;48.122;11.546;2023-06-22T04:59:07;13.23;;;8.13;;
17985;SDS011;9118;48.122;11.546;2023-06-22T05:01:38;11.10;;;7.80;;
17985;SDS011;9118;48.122;11.546;2023-06-22T05:04:05;11.13;;;7.80;;
17985;SDS011;9118;48.122;11.546;2023-06-22T05:06:32;15.00;;;8.20;;
17985;SDS011;9118;48.122;11.546;2023-06-22T05:09:01;13.05;;;7.68;;
17985;SDS011;9118;48.122;11.546;2023-06-22T05:11:30;14.20;;;8.68;;
17985;SDS011;9118;48.122;11.546;2023-06-22T05:13:57;14.77;;;9.00;;
17985;SDS011;9118;48.122;11.546;2023-06-22T05:16:24;17.10;;;9.40;;
17985;SDS011;9118;48.122;11.546;2023-06-22T05:18:52;13.60;;;8.35;;
17985;SDS011;9118;48.122;11.546;2023-06-22T05:21:23;13.27;;;8.38;;
17985;SDS011;9118;48.122;11.546;2023-06-22T05:23:52;17.80;;;8.98;;
17985;SDS011;9118;48.122;11.546;2023-06-22T05:26:22;15.10;;;8.77;;
17985;SDS011;9118;48.122;11.546;2023-06-22T05:28:49;10.35;;;8.68;;
17985;SDS011;9118;48.122;11.546;2023-06-22T05:31:16;14.43;;;8.80;;
17985;SDS011;9118;48.122;11.546;2023-06-22T05:33:45;14.05;;;9.02;;
17985;SDS011;9118;48.122;11.546;2023-06-22T05:36:14;14.35;;;9.65;;
17985;SDS011;9118;48.122;11.546;2023-06-22T05:38:41;17.08;;;9.60;;
17985;SDS011;9118;48.122;11.546;2023-06-22T05:41:08;17.45;;;8.73;;
17985;SDS011;9118;48.122;11.546;2023-06-22T05:43:37;20.42;;;10.15;;
17985;SDS011;9118;48.122;11.546;2023-06-22T05:46:04;15.80;;;9.60;;
17985;SDS011;9118;48.122;11.546;2023-06-22T05:48:31;16.98;;;10.05;;
17985;SDS011;9118;48.122;11.546;2023-06-22T05:50:58;13.90;;;9.75;;
17985;SDS011;9118;48.122;11.546;2023-06-22T05:53:26;15.52;;;9.45;;
17985;SDS011;9118;48.122;11.546;2023-06-22T05:55:53;16.65;;;10.43;;
17985;SDS011;9118;48.122;11.546;2023-06-22T05:58:20;16.35;;;9.20;;
17985;SDS011;9118;48.122;11.546;2023-06-22T06:00:49;15.77;;;9.32;;
17985;SDS011;9118;48.122;11.546;2023-06-22T06:03:15;19.08;;;10.23;;
17985;SDS011;9118;48.122;11.546;2023-06-22T06:05:43;13.43;;;8.90;;
17985;SDS011;9118;48.122;11.546;2023-06-22T06:08:10;14.43;;;9.68;;
17985;SDS011;9118;48.122;11.546;2023-06-22T06:10:37;17.17;;;10.38;;
17985;SDS011;9118;48.122;11.546;2023-06-22T06:13:05;16.80;;;10.35;;
17985;SDS011;9118;48.122;11.546;2023-06-22T06:15:32;16.10;;;10.27;;
17985;SDS011;9118;48.122;11.546;2023-06-22T06:18:01;15.48;;;9.65;;
17985;SDS011;9118;48.122;11.546;2023-06-22T06:20:30;16.70;;;9.90;;
17985;SDS011;9118;48.122;11.546;2023-06-22T06:22:57;16.60;;;10.32;;
17985;SDS011;9118;48.122;11.546;2023-06-22T06:25:24;15.23;;;9.73;;
17985;SDS011;9118;48.122;11.546;2023-06-22T06:27:52;14.90;;;9.45;;
17985;SDS011;9118;48.122;11.546;2023-06-22T06:30:20;14.25;;;9.02;;
17985;SDS011;9118;48.122;11.546;2023-06-22T06:32:49;13.30;;;8.82;;
17985;SDS011;9118;48.122;11.546;2023-06-22T06:35:17;15.82;;;9.40;;
17985;SDS011;9118;48.122;11.546;2023-06-22T06:37:45;17.90;;;8.60;;
17985;SDS011;9118;48.122;11.546;2023-06-22T06:40:14;15.90;;;9.95;;
17985;SDS011;9118;48.122;11.546;2023-06-22T06:42:43;17.90;;;10.02;;
17985;SDS011;9118;48.122;11.546;2023-06-22T06:45:15;15.98;;;10.60;;
17985;SDS011;9118;48.122;11.546;2023-06-22T06:47:43;12.45;;;9.45;;
17985;SDS011;9118;48.122;11.546;2023-06-22T06:50:11;17.40;;;10.43;;
17985;SDS011;9118;48.122;11.546;2023-06-22T06:52:42;20.92;;;10.18;;
17985;SDS011;9118;48.122;11.546;2023-06-22T06:55:10;15.63;;;9.00;;
17985;SDS011;9118;48.122;11.546;2023-06-22T06:57:38;16.40;;;9.45;;
17985;SDS011;9118;48.122;11.546;2023-06-22T07:00:07;15.55;;;9.75;;
17985;SDS011;9118;48.122;11.546;2023-06-22T07:02:37;17.60;;;9.23;;
17985;SDS011;9118;48.122;11.546;2023-06-22T07:05:05;15.38;;;9.35;;
17985;SDS011;9118;48.122;11.546;2023-06-22T07:07:33;15.85;;;9.32;;
17985;SDS011;9118;48.122;11.546;2023-06-22T07:10:01;19.50;;;10.27;;
17985;SDS011;9118;48.122;11.546;2023-06-22T07:12:29;16.23;;;9.60;;
17985;SDS011;9118;48.122;11.546;2023-06-22T07:15:00;21.00;;;9.88;;
17985;SDS011;9118;48.122;11.546;2023-06-22T07:17:29;15.55;;;9.65;;
17985;SDS011;9118;48.122;11.546;2023-06-22T07:19:56;15.63;;;9.85;;
17985;SDS011;9118;48.122;11.546;2023-06-22T07:22:23;15.05;;;9.68;;
17985;SDS011;9118;48.122;11.546;2023-06-22T07:24:50;15.10;;;8.98;;
17985;SDS011;9118;48.122;11.546;2023-06-22T07:27:19;13.80;;;9.68;;
17985;SDS011;9118;48.122;11.546;2023-06-22T07:29:46;14.70;;;9.13;;
17985;SDS011;9118;48.122;11.546;2023-06-22T07:32:13;18.50;;;9.75;;
17985;SDS011;9118;48.122;11.546;2023-06-22T07:34:40;22.10;;;10.20;;
17985;SDS011;9118;48.122;11.546;2023-06-22T07:37:08;19.42;;;10.10;;
17985;SDS011;9118;48.122;11.546;2023-06-22T07:39:35;44.85;;;14.02;;
17985;SDS011;9118;48.122;11.546;2023-06-22T07:42:03;24.95;;;11.32;;
17985;SDS011;9118;48.122;11.546;2023-06-22T07:44:31;18.92;;;10.40;;
17985;SDS011;9118;48.122;11.546;2023-06-22T07:46:59;18.30;;;9.50;;
17985;SDS011;9118;48.122;11.546;2023-06-22T07:49:27;19.73;;;10.27;;
17985;SDS011;9118;48.122;11.546;2023-06-22T07:51:54;17.10;;;9.18;;
17985;SDS011;9118;48.122;11.546;2023-06-22T07:54:21;23.05;;;10.02;;
17985;SDS011;9118;48.122;11.546;2023-06-22T07:56:48;18.83;;;9.77;;
17985;SDS011;9118;48.122;11.546;2023-06-22T07:59:15;23.30;;;11.32;;
17985;SDS011;9118;48.122;11.546;2023-06-22T08:01:43;20.17;;;11.18;;
17985;SDS011;9118;48.122;11.546;2023-06-22T08:04:10;16.30;;;9.93;;
17985;SDS011;9118;48.122;11.546;2023-06-22T08:06:37;21.38;;;11.18;;
17985;SDS011;9118;48.122;11.546;2023-06-22T08:09:04;18.13;;;9.73;;
17985;SDS011;9118;48.122;11.546;2023-06-22T08:11:31;16.90;;;10.43;;
17985;SDS011;9118;48.122;11.546;2023-06-22T08:13:59;16.63;;;9.68;;
17985;SDS011;9118;48.122;11.546;2023-06-22T08:16:26;18.15;;;10.07;;
17985;SDS011;9118;48.122;11.546;2023-06-22T08:18:54;15.60;;;9.60;;
17985;SDS011;9118;48.122;11.546;2023-06-22T08:21:21;16.77;;;9.27;;
17985;SDS011;9118;48.122;11.546;2023-06-22T08:23:48;14.65;;;9.43;;
17985;SDS011;9118;48.122;11.546;2023-06-22T08:26:15;15.75;;;9.75;;
17985;SDS011;9118;48.122;11.546;2023-06-22T08:28:42;13.15;;;9.18;;
17985;SDS011;9118;48.122;11.546;2023-06-22T08:31:09;16.95;;;9.35;;
17985;SDS011;9118;48.122;11.546;2023-06-22T08:33:37;17.58;;;9.25;;
17985;SDS011;9118;48.122;11.546;2023-06-22T08:36:06;14.25;;;9.25;;
17985;SDS011;9118;48.122;11.546;2023-06-22T08:38:33;14.85;;;10.15;;
17985;SDS011;9118;48.122;11.546;2023-06-22T08:41:00;15.90;;;9.82;;
17985;SDS011;9118;48.122;11.546;2023-06-22T08:43:27;15.05;;;9.27;;
17985;SDS011;9118;48.122;11.546;2023-06-22T08:45:54;16.65;;;10.70;;
17985;SDS011;9118;48.122;11.546;2023-06-22T08:48:21;31.73;;;10.68;;
17985;SDS011;9118;48.122;11.546;2023-06-22T08:50:48;25.45;;;11.00;;
17985;SDS011;9118;48.122;11.546;2023-06-22T08:53:18;13.82;;;9.18;;
17985;SDS011;9118;48.122;11.546;2023-06-22T08:55:46;19.38;;;10.63;;
17985;SDS011;9118;48.122;11.546;2023-06-22T08:58:12;23.45;;;10.35;;
17985;SDS011;9118;48.122;11.546;2023-06-22T09:00:39;21.98;;;10.15;;
17985;SDS011;9118;48.122;11.546;2023-06-22T09:03:06;18.70;;;9.68;;
17985;SDS011;9118;48.122;11.546;2023-06-22T09:05:34;24.10;;;10.48;;
17985;SDS011;9118;48.122;11.546;2023-06-22T09:08:01;13.25;;;9.73;;
17985;SDS011;9118;48.122;11.546;2023-06-22T09:10:29;17.15;;;9.23;;
17985;SDS011;9118;48.122;11.546;2023-06-22T09:12:57;20.70;;;8.60;;
17985;SDS011;9118;48.122;11.546;2023-06-22T09:15:24;16.92;;;9.32;;
17985;SDS011;9118;48.122;11.546;2023-06-22T09:17:51;13.38;;;8.68;;
17985;SDS011;9118;48.122;11.546;2023-06-22T09:20:19;16.23;;;9.55;;
17985;SDS011;9118;48.122;11.546;2023-06-22T09:22:46;18.65;;;9.23;;
17985;SDS011;9118;48.122;11.546;2023-06-22T09:25:13;18.80;;;9.18;;
17985;SDS011;9118;48.122;11.546;2023-06-22T09:27:42;16.88;;;9.32;;
17985;SDS011;9118;48.122;11.546;2023-06-22T09:30:09;13.05;;;8.48;;
17985;SDS011;9118;48.122;11.546;2023-06-22T09:32:36;12.95;;;8.88;;
17985;SDS011;9118;48.122;11.546;2023-06-22T09:35:04;18.23;;;9.25;;
17985;SDS011;9118;48.122;11.546;2023-06-22T09:37:33;18.90;;;9.30;;
17985;SDS011;9118;48.122;11.546;2023-06-22T09:40:00;13.60;;;8.57;;
17985;SDS011;9118;48.122;11.546;2023-06-22T09:42:32;19.00;;;8.75;;
17985;SDS011;9118;48.122;11.546;2023-06-22T09:45:00;19.45;;;9.13;;
17985;SDS011;9118;48.122;11.546;2023-06-22T09:47:27;18.02;;;9.40;;
17985;SDS011;9118;48.122;11.546;2023-06-22T09:49:55;17.45;;;9.25;;
17985;SDS011;9118;48.122;11.546;2023-06-22T09:52:25;18.90;;;8.20;;
17985;SDS011;9118;48.122;11.546;2023-06-22T09:54:53;16.38;;;8.82;;
17985;SDS011;9118;48.122;11.546;2023-06-22T09:57:20;13.35;;;8.07;;
17985;SDS011;9118;48.122;11.546;2023-06-22T09:59:47;15.63;;;8.85;;
17985;SDS011;9118;48.122;11.546;2023-06-22T10:02:16;17.45;;;9.00;;
17985;SDS011;9118;48.122;11.546;2023-06-22T10:04:43;14.80;;;8.70;;
17985;SDS011;9118;48.122;11.546;2023-06-22T10:07:12;20.17;;;8.98;;
17985;SDS011;9118;48.122;11.546;2023-06-22T10:09:39;15.05;;;8.98;;
17985;SDS011;9118;48.122;11.546;2023-06-22T10:12:06;13.40;;;8.60;;
17985;SDS011;9118;48.122;11.546;2023-06-22T10:14:34;17.27;;;9.35;;
17985;SDS011;9118;48.122;11.546;2023-06-22T10:17:02;18.73;;;9.43;;
17985;SDS011;9118;48.122;11.546;2023-06-22T10:19:33;19.10;;;8.18;;
17985;SDS011;9118;48.122;11.546;2023-06-22T10:22:02;23.20;;;12.25;;
17985;SDS011;9118;48.122;11.546;2023-06-22T10:24:30;17.45;;;8.73;;
17985;SDS011;9118;48.122;11.546;2023-06-22T10:26:57;20.10;;;9.05;;
17985;SDS011;9118;48.122;11.546;2023-06-22T10:29:24;17.00;;;8.73;;
17985;SDS011;9118;48.122;11.546;2023-06-22T10:31:51;13.43;;;8.20;;
17985;SDS011;9118;48.122;11.546;2023-06-22T10:34:18;16.95;;;9.43;;
17985;SDS011;9118;48.122;11.546;2023-06-22T10:36:47;21.33;;;8.52;;
17985;SDS011;9118;48.122;11.546;2023-06-22T10:39:14;14.20;;;8.63;;
17985;SDS011;9118;48.122;11.546;2023-06-22T10:41:41;19.70;;;9.32;;
17985;SDS011;9118;48.122;11.546;2023-06-22T10:44:08;18.73;;;9.10;;
17985;SDS011;9118;48.122;11.546;2023-06-22T10:46:37;15.48;;;8.73;;
17985;SDS011;9118;48.122;11.546;2023-06-22T10:49:04;15.98;;;8.75;;
17985;SDS011;9118;48.122;11.546;2023-06-22T10:51:31;13.93;;;8.40;;
17985;SDS011;9118;48.122;11.546;2023-06-22T10:54:00;18.35;;;9.65;;
17985;SDS011;9118;48.122;11.546;2023-06-22T10:56:29;16.85;;;8.50;;
17985;SDS011;9118;48.122;11.546;2023-06-22T10:58:58;16.88;;;8.55;;
17985;SDS011;9118;48.122;11.546;2023-06-22T11:01:26;13.48;;;8.35;;
17985;SDS011;9118;48.122;11.546;2023-06-22T11:03:56;13.38;;;8.50;;
17985;SDS011;9118;48.122;11.546;2023-06-22T11:06:24;21.65;;;8.77;;
17985;SDS011;9118;48.122;11.546;2023-06-22T11:08:51;14.93;;;8.20;;
17985;SDS011;9118;48.122;11.546;2023-06-22T11:11:23;16.17;;;8.18;;
17985;SDS011;9118;48.122;11.546;2023-06-22T11:13:54;16.58;;;8.90;;
17985;SDS011;9118;48.122;11.546;2023-06-22T11:16:28;17.92;;;8.65;;
17985;SDS011;9118;48.122;11.546;2023-06-22T11:19:10;17.98;;;8.55;;
17985;SDS011;9118;48.122;11.546;2023-06-22T11:21:38;13.48;;;8.10;;
17985;SDS011;9118;48.122;11.546;2023-06-22T11:24:05;13.52;;;7.75;;
17985;SDS011;9118;48.122;11.546;2023-06-22T11:26:37;14.18;;;7.93;;
17985;SDS011;9118;48.122;11.546;2023-06-22T11:29:06;16.35;;;8.27;;
17985;SDS011;9118;48.122;11.546;2023-06-22T11:31:34;19.05;;;8.98;;
17985;SDS011;9118;48.122;11.546;2023-06-22T11:34:03;13.98;;;7.80;;
17985;SDS011;9118;48.122;11.546;2023-06-22T11:36:30;22.40;;;8.27;;
17985;SDS011;9118;48.122;11.546;2023-06-22T11:38:59;16.02;;;8.10;;
17985;SDS011;9118;48.122;11.546;2023-06-22T11:41:28;18.73;;;9.07;;
17985;SDS011;9118;48.122;11.546;2023-06-22T11:43:58;15.40;;;8.00;;
17985;SDS011;9118;48.122;11.546;2023-06-22T11:46:26;13.25;;;7.85;;
17985;SDS011;9118;48.122;11.546;2023-06-22T11:48:53;16.10;;;8.75;;
17985;SDS011;9118;48.122;11.546;2023-06-22T11:51:20;14.75;;;8.20;;
17985;SDS011;9118;48.122;11.546;2023-06-22T11:53:47;13.10;;;8.00;;
17985;SDS011;9118;48.122;11.546;2023-06-22T11:56:14;12.07;;;7.55;;
17985;SDS011;9118;48.122;11.546;2023-06-22T11:58:41;20.55;;;8.68;;
17985;SDS011;9118;48.122;11.546;2023-06-22T12:01:10;15.35;;;8.52;;
17985;SDS011;9118;48.122;11.546;2023-06-22T12:03:40;16.50;;;9.18;;
17985;SDS011;9118;48.122;11.546;2023-06-22T12:06:08;14.38;;;8.60;;
17985;SDS011;9118;48.122;11.546;2023-06-22T12:08:35;17.05;;;8.20;;
17985;SDS011;9118;48.122;11.546;2023-06-22T12:11:03;12.27;;;8.52;;
17985;SDS011;9118;48.122;11.546;2023-06-22T12:13:30;16.80;;;9.95;;
17985;SDS011;9118;48.122;11.546;2023-06-22T12:15:57;19.05;;;8.88;;
17985;SDS011;9118;48.122;11.546;2023-06-22T12:18:26;18.27;;;8.40;;
17985;SDS011;9118;48.122;11.546;2023-06-22T12:20:53;14.95;;;9.57;;
17985;SDS011;9118;48.122;11.546;2023-06-22T12:23:20;17.70;;;9.50;;
17985;SDS011;9118;48.122;11.546;2023-06-22T12:25:47;16.55;;;9.10;;
17985;SDS011;9118;48.122;11.546;2023-06-22T12:28:14;16.98;;;8.38;;
17985;SDS011;9118;48.122;11.546;2023-06-22T12:30:41;17.20;;;9.23;;
17985;SDS011;9118;48.122;11.546;2023-06-22T12:33:08;16.38;;;9.18;;
17985;SDS011;9118;48.122;11.546;2023-06-22T12:35:36;15.75;;;8.60;;
17985;SDS011;9118;48.122;11.546;2023-06-22T12:38:03;14.77;;;9.05;;
17985;SDS011;9118;48.122;11.546;2023-06-22T12:40:31;21.75;;;9.35;;
17985;SDS011;9118;48.122;11.546;2023-06-22T12:42:58;20.70;;;8.55;;
17985;SDS011;9118;48.122;11.546;2023-06-22T12:45:27;19.77;;;13.02;;
17985;SDS011;9118;48.122;11.546;2023-06-22T12:47:58;18.55;;;8.40;;
17985;SDS011;9118;48.122;11.546;2023-06-22T12:50:25;14.43;;;8.23;;
17985;SDS011;9118;48.122;11.546;2023-06-22T12:52:54;13.38;;;8.32;;
17985;SDS011;9118;48.122;11.546;2023-06-22T12:55:21;15.30;;;8.20;;
17985;SDS011;9118;48.122;11.546;2023-06-22T12:57:48;19.75;;;8.20;;
17985;SDS011;9118;48.122;11.546;2023-06-22T13:00:15;14.35;;;7.70;;
17985;SDS011;9118;48.122;11.546;2023-06-22T13:02:43;15.75;;;7.07;;
17985;SDS011;9118;48.122;11.546;2023-06-22T13:05:10;11.23;;;7.72;;
17985;SDS011;9118;48.122;11.546;2023-06-22T13:07:37;16.63;;;7.88;;
17985;SDS011;9118;48.122;11.546;2023-06-22T13:10:06;15.43;;;9.13;;
17985;SDS011;9118;48.122;11.546;2023-06-22T13:12:34;13.13;;;8.15;;
17985;SDS011;9118;48.122;11.546;2023-06-22T13:15:01;15.57;;;7.40;;
17985;SDS011;9118;48.122;11.546;2023-06-22T13:17:28;12.32;;;7.55;;
17985;SDS011;9118;48.122;11.546;2023-06-22T13:19:55;15.00;;;7.60;;
17985;SDS011;9118;48.122;11.546;2023-06-22T13:22:29;13.20;;;7.57;;
17985;SDS011;9118;48.122;11.546;2023-06-22T13:24:57;20.17;;;7.65;;
17985;SDS011;9118;48.122;11.546;2023-06-22T13:27:26;20.67;;;7.75;;
17985;SDS011;9118;48.122;11.546;2023-06-22T13:29:53;15.05;;;7.70;;
17985;SDS011;9118;48.122;11.546;2023-06-22T13:32:20;12.88;;;7.45;;
17985;SDS011;9118;48.122;11.546;2023-06-22T13:34:47;16.95;;;10.35;;
17985;SDS011;9118;48.122;11.546;2023-06-22T13:37:14;13.45;;;6.88;;
17985;SDS011;9118;48.122;11.546;2023-06-22T13:39:42;29.23;;;8.88;;
17985;SDS011;9118;48.122;11.546;2023-06-22T13:42:09;16.90;;;7.65;;
17985;SDS011;9118;48.122;11.546;2023-06-22T13:44:37;14.65;;;8.13;;
17985;SDS011;9118;48.122;11.546;2023-06-22T13:47:05;13.43;;;7.45;;
17985;SDS011;9118;48.122;11.546;2023-06-22T13:49:32;11.93;;;7.57;;
17985;SDS011;9118;48.122;11.546;2023-06-22T13:52:00;20.42;;;11.30;;
17985;SDS011;9118;48.122;11.546;2023-06-22T13:54:28;13.45;;;7.50;;
17985;SDS011;9118;48.122;11.546;2023-06-22T13:56:55;15.43;;;7.90;;
17985;SDS011;9118;48.122;11.546;2023-06-22T13:59:22;14.38;;;8.18;;
17985;SDS011;9118;48.122;11.546;2023-06-22T14:01:52;15.77;;;7.05;;
17985;SDS011;9118;48.122;11.546;2023-06-22T14:04:19;15.38;;;7.40;;
17985;SDS011;9118;48.122;11.546;2023-06-22T14:06:47;9.77;;;6.35;;
17985;SDS011;9118;48.122;11.546;2023-06-22T14:09:14;14.05;;;6.78;;
17985;SDS011;9118;48.122;11.546;2023-06-22T14:11:41;13.63;;;8.07;;
17985;SDS011;9118;48.122;11.546;2023-06-22T14:14:08;15.52;;;6.50;;
17985;SDS011;9118;48.122;11.546;2023-06-22T14:16:35;10.95;;;5.95;;
17985;SDS011;9118;48.122;11.546;2023-06-22T14:19:04;13.60;;;6.55;;
17985;SDS011;9118;48.122;11.546;2023-06-22T14:21:31;9.10;;;5.82;;
17985;SDS011;9118;48.122;11.546;2023-06-22T14:23:58;13.68;;;6.05;;
17985;SDS011;9118;48.122;11.546;2023-06-22T14:26:25;12.57;;;8.02;;
17985;SDS011;9118;48.122;11.546;2023-06-22T14:28:52;11.50;;;6.60;;
17985;SDS011;9118;48.122;11.546;2023-06-22T14:31:19;9.85;;;5.78;;
17985;SDS011;9118;48.122;11.546;2023-06-22T14:33:47;12.80;;;6.45;;
17985;SDS011;9118;48.122;11.546;2023-06-22T14:36:16;11.65;;;5.65;;
17985;SDS011;9118;48.122;11.546;2023-06-22T14:38:43;14.65;;;6.38;;
17985;SDS011;9118;48.122;11.546;2023-06-22T14:41:11;10.88;;;5.55;;